Time;durP1;ratioP1;P1;durP2;ratioP2;P2;SDS_P1;SDS_P2;PMS_P1;PMS_P2;Temp;Humidity;BMP_temperature;BMP_pressure;BME280_temperature;BME280_humidity;BME280_pressure;Samples;Min_cycle;Max_cycle;Signal;HPM_P1;HPM_P2
2023/09/01 00:01:58;;;;;;;;;3.00;1.00;;;;;;;;5028592;28;8822;-79
2023/09/01 00:04:25;;;;;;;;;1.80;1.80;;;;;;;;5028439;28;8899;-82
2023/09/01 00:06:52;;;;;;;;;1.00;1.00;;;;;;;;5028403;28;8872;-79
2023/09/01 00:09:20;;;;;;;;;2.20;2.20;;;;;;;;5029335;28;9637;-83
2023/09/01 00:11:49;;;;;;;;;2.00;2.00;;;;;;;;5028002;28;8934;-81
2023/09/01 00:14:18;;;;;;;;;1.80;1.80;;;;;;;;5027743;28;8852;-79
2023/09/01 00:16:45;;;;;;;;;1.60;1.60;;;;;;;;5028128;28;8864;-82
2023/09/01 00:19:15;;;;;;;;;1.60;1.60;;;;;;;;5027993;28;8982;-80
2023/09/01 00:21:43;;;;;;;;;1.00;1.00;;;;;;;;5028571;28;8871;-79
2023/09/01 00:24:11;;;;;;;;;1.40;1.40;;;;;;;;5028195;28;8898;-79
2023/09/01 00:26:40;;;;;;;;;3.00;3.00;;;;;;;;5031120;28;8883;-79
2023/09/01 00:29:07;;;;;;;;;1.00;1.00;;;;;;;;5031878;28;8880;-89
2023/09/01 00:31:36;;;;;;;;;2.00;2.00;;;;;;;;5029899;28;8862;-79
2023/09/01 00:34:05;;;;;;;;;1.00;1.00;;;;;;;;5030060;28;8856;-82
2023/09/01 00:36:32;;;;;;;;;1.80;1.80;;;;;;;;5032523;28;8864;-80
2023/09/01 00:38:59;;;;;;;;;1.00;1.00;;;;;;;;5032718;28;8864;-79
2023/09/01 00:41:27;;;;;;;;;1.80;1.80;;;;;;;;5031737;28;8856;-79
2023/09/01 00:43:54;;;;;;;;;1.60;1.60;;;;;;;;5031696;28;8975;-82
2023/09/01 00:46:21;;;;;;;;;2.00;2.00;;;;;;;;5031502;28;9591;-81
2023/09/01 00:48:50;;;;;;;;;2.00;2.00;;;;;;;;5031424;28;8938;-84
2023/09/01 00:51:19;;;;;;;;;3.80;3.00;;;;;;;;5030507;28;8893;-82
2023/09/01 00:53:46;;;;;;;;;1.60;1.60;;;;;;;;5030591;28;8890;-87
2023/09/01 00:56:14;;;;;;;;;1.80;1.80;;;;;;;;5031530;28;8993;-79
2023/09/01 00:58:41;;;;;;;;;2.00;2.00;;;;;;;;5031202;28;8848;-78
2023/09/01 01:01:08;;;;;;;;;1.80;1.80;;;;;;;;5030798;28;8816;-79
2023/09/01 01:03:35;;;;;;;;;1.80;1.00;;;;;;;;5031992;28;8929;-80
2023/09/01 01:06:14;;;;;;;;;1.40;1.40;;;;;;;;5031122;28;8844;-80
2023/09/01 01:08:57;;;;;;;;;2.20;2.20;;;;;;;;5031946;28;8836;-79
2023/09/01 01:11:32;;;;;;;;;1.80;1.80;;;;;;;;5032127;28;8860;-81
2023/09/01 01:14:04;;;;;;;;;1.80;1.80;;;;;;;;5031574;28;8848;-79
2023/09/01 01:16:33;;;;;;;;;2.00;2.00;;;;;;;;5031699;28;8848;-79
2023/09/01 01:19:05;;;;;;;;;2.20;2.20;;;;;;;;5033884;28;9011;-79
2023/09/01 01:21:35;;;;;;;;;1.80;1.80;;;;;;;;5032334;28;8979;-81
2023/09/01 01:24:05;;;;;;;;;1.20;1.20;;;;;;;;5034002;28;8872;-79
2023/09/01 01:26:32;;;;;;;;;2.00;2.00;;;;;;;;5033367;28;8872;-79
2023/09/01 01:28:59;;;;;;;;;1.20;1.20;;;;;;;;5033468;28;8856;-79
2023/09/01 01:31:26;;;;;;;;;1.80;1.80;;;;;;;;5032734;28;8804;-81
2023/09/01 01:33:57;;;;;;;;;2.80;2.00;;;;;;;;5035193;28;8876;-81
2023/09/01 01:36:32;;;;;;;;;1.00;1.00;;;;;;;;5030690;28;8894;-79
2023/09/01 01:39:05;;;;;;;;;2.80;2.80;;;;;;;;5030227;28;8856;-82
2023/09/01 01:41:38;;;;;;;;;1.40;1.40;;;;;;;;5030651;28;8893;-82
2023/09/01 01:44:06;;;;;;;;;1.20;1.00;;;;;;;;5031762;28;8860;-78
2023/09/01 01:46:34;;;;;;;;;1.80;1.80;;;;;;;;5031182;28;9656;-82
2023/09/01 01:49:02;;;;;;;;;1.60;1.60;;;;;;;;5030044;28;8858;-81
2023/09/01 01:51:29;;;;;;;;;1.40;1.00;;;;;;;;5018374;28;8876;-82
2023/09/01 01:53:56;;;;;;;;;1.00;1.00;;;;;;;;5029991;28;8898;-80
2023/09/01 01:56:25;;;;;;;;;1.00;1.00;;;;;;;;5030488;28;8898;-80
2023/09/01 01:58:52;;;;;;;;;3.00;2.40;;;;;;;;5029617;28;8848;-82
2023/09/01 02:01:20;;;;;;;;;1.40;1.40;;;;;;;;5030040;28;8805;-81
2023/09/01 02:03:48;;;;;;;;;1.40;1.40;;;;;;;;5031903;28;8883;-84
2023/09/01 02:06:16;;;;;;;;;1.00;1.00;;;;;;;;5032132;28;8863;-88
2023/09/01 02:08:43;;;;;;;;;0.60;0.60;;;;;;;;5031543;28;8836;-86
2023/09/01 02:11:10;;;;;;;;;1.00;1.00;;;;;;;;5030613;28;8904;-79
2023/09/01 02:13:39;;;;;;;;;2.60;2.00;;;;;;;;5030890;28;9272;-83
2023/09/01 02:16:06;;;;;;;;;1.20;1.20;;;;;;;;5032300;28;8959;-79
2023/09/01 02:18:33;;;;;;;;;1.20;1.20;;;;;;;;5030587;28;8856;-83
2023/09/01 02:21:02;;;;;;;;;1.40;1.40;;;;;;;;5030339;28;8856;-79
2023/09/01 02:23:35;;;;;;;;;0.80;0.80;;;;;;;;5029558;28;8953;-80
2023/09/01 02:26:08;;;;;;;;;2.00;2.00;;;;;;;;5029675;28;8878;-79
2023/09/01 02:28:35;;;;;;;;;1.20;0.60;;;;;;;;5029301;28;8891;-79
2023/09/01 02:31:10;;;;;;;;;1.80;1.80;;;;;;;;5029065;28;9516;-78
2023/09/01 02:33:37;;;;;;;;;0.00;0.00;;;;;;;;5018240;28;8863;-79
2023/09/01 02:36:22;;;;;;;;;2.80;1.00;;;;;;;;5029081;28;8898;-78
2023/09/01 02:38:49;;;;;;;;;2.40;1.40;;;;;;;;5029373;28;8882;-82
2023/09/01 02:41:17;;;;;;;;;0.80;0.80;;;;;;;;5028848;28;8971;-79
2023/09/01 02:43:45;;;;;;;;;3.40;2.80;;;;;;;;5029473;28;8856;-81
2023/09/01 02:46:17;;;;;;;;;3.00;1.00;;;;;;;;5029397;28;8863;-78
2023/09/01 02:48:44;;;;;;;;;3.00;1.20;;;;;;;;5030144;28;8848;-79
2023/09/01 02:51:11;;;;;;;;;2.80;1.80;;;;;;;;5030017;28;9006;-79
2023/09/01 02:53:39;;;;;;;;;1.00;1.00;;;;;;;;5030629;28;8876;-79
2023/09/01 02:56:06;;;;;;;;;1.00;1.00;;;;;;;;5029260;28;8876;-79
2023/09/01 02:58:35;;;;;;;;;1.40;1.00;;;;;;;;5027690;28;8878;-82
2023/09/01 03:01:07;;;;;;;;;2.00;2.00;;;;;;;;5029056;28;9367;-79
2023/09/01 03:03:36;;;;;;;;;2.00;2.00;;;;;;;;5029919;28;9004;-83
2023/09/01 03:06:05;;;;;;;;;2.00;2.00;;;;;;;;5032101;28;8856;-82
2023/09/01 03:08:33;;;;;;;;;1.20;1.20;;;;;;;;5033062;28;8887;-79
2023/09/01 03:11:00;;;;;;;;;1.40;1.40;;;;;;;;5033209;28;8844;-79
2023/09/01 03:13:27;;;;;;;;;1.40;1.40;;;;;;;;5033861;28;8840;-80
2023/09/01 03:15:55;;;;;;;;;1.60;1.60;;;;;;;;5034457;28;8912;-85
2023/09/01 03:18:23;;;;;;;;;2.60;2.60;;;;;;;;5031183;28;8828;-80
2023/09/01 03:20:53;;;;;;;;;3.20;2.60;;;;;;;;5029450;28;9637;-79
2023/09/01 03:23:20;;;;;;;;;1.80;1.60;;;;;;;;5030013;28;8852;-81
2023/09/01 03:25:54;;;;;;;;;1.60;1.40;;;;;;;;5029434;28;8852;-79
2023/09/01 03:28:22;;;;;;;;;1.00;1.00;;;;;;;;5028090;28;8860;-79
2023/09/01 03:30:49;;;;;;;;;1.80;1.80;;;;;;;;5031884;28;8794;-79
2023/09/01 03:33:16;;;;;;;;;1.80;1.80;;;;;;;;5027768;28;8860;-83
2023/09/01 03:35:44;;;;;;;;;2.40;2.40;;;;;;;;5028430;28;8995;-81
2023/09/01 03:38:12;;;;;;;;;3.60;3.00;;;;;;;;5028033;28;8866;-79
2023/09/01 03:40:40;;;;;;;;;1.20;1.20;;;;;;;;5017909;28;8862;-79
2023/09/01 03:43:07;;;;;;;;;3.80;2.00;;;;;;;;5027190;28;8874;-84
2023/09/01 03:45:46;;;;;;;;;1.00;1.00;;;;;;;;5028490;28;9595;-79
2023/09/01 03:48:31;;;;;;;;;3.20;2.00;;;;;;;;5027150;28;8860;-78
2023/09/01 03:51:10;;;;;;;;;1.60;1.60;;;;;;;;5029808;28;9631;-80
2023/09/01 03:53:39;;;;;;;;;3.00;3.00;;;;;;;;5033274;28;9026;-81
2023/09/01 03:56:09;;;;;;;;;4.00;2.20;;;;;;;;5029172;28;8860;-79
2023/09/01 03:58:37;;;;;;;;;1.60;1.60;;;;;;;;5028970;28;8891;-81
2023/09/01 04:01:08;;;;;;;;;1.80;1.80;;;;;;;;5028095;28;8821;-82
2023/09/01 04:03:35;;;;;;;;;1.00;1.00;;;;;;;;5032059;28;8961;-82
2023/09/01 04:06:20;;;;;;;;;3.00;3.00;;;;;;;;5031701;28;8975;-83
2023/09/01 04:08:55;;;;;;;;;2.40;2.40;;;;;;;;5032222;28;8840;-84
2023/09/01 04:11:23;;;;;;;;;1.80;0.40;;;;;;;;5033319;28;8935;-82
2023/09/01 04:14:06;;;;;;;;;3.00;1.75;;;;;;;;5032355;28;8868;-82
2023/09/01 04:16:57;;;;;;;;;1.20;1.20;;;;;;;;5031420;28;8868;-82
2023/09/01 04:19:27;;;;;;;;;5.25;5.25;;;;;;;;5031194;28;8866;-82
2023/09/01 04:21:55;;;;;;;;;5.00;5.00;;;;;;;;5031267;28;8856;-81
2023/09/01 04:24:28;;;;;;;;;2.40;2.40;;;;;;;;5031369;28;8852;-83
2023/09/01 04:26:57;;;;;;;;;2.00;2.00;;;;;;;;5031571;28;8892;-82
2023/09/01 04:29:26;;;;;;;;;3.20;2.00;;;;;;;;5032039;28;8867;-83
2023/09/01 04:31:55;;;;;;;;;3.20;1.40;;;;;;;;5032610;28;8821;-82
2023/09/01 04:34:34;;;;;;;;;1.80;1.80;;;;;;;;5031688;28;9642;-83
2023/09/01 04:37:03;;;;;;;;;1.00;1.00;;;;;;;;5031413;28;8918;-81
2023/09/01 04:39:48;;;;;;;;;3.00;2.00;;;;;;;;5031290;28;8844;-81
2023/09/01 04:45:25;;;;;;;;;2.00;2.00;;;;;;;;5022690;28;9604;-83
2023/09/01 04:47:53;;;;;;;;;1.60;1.60;;;;;;;;5034057;28;8857;-82
2023/09/01 04:50:20;;;;;;;;;1.00;1.00;;;;;;;;5034694;28;8856;-83
2023/09/01 04:52:48;;;;;;;;;3.75;2.00;;;;;;;;5034559;28;8868;-82
2023/09/01 04:55:17;;;;;;;;;4.40;2.80;;;;;;;;5035325;28;8890;-81
2023/09/01 04:57:44;;;;;;;;;2.50;2.50;;;;;;;;5031970;28;9732;-84
2023/09/01 05:00:16;;;;;;;;;1.20;0.80;;;;;;;;5030862;28;8852;-82
2023/09/01 05:02:49;;;;;;;;;0.00;0.00;;;;;;;;5031361;28;8875;-79
2023/09/01 05:05:18;;;;;;;;;1.25;1.25;;;;;;;;5031181;28;8895;-81
2023/09/01 05:07:47;;;;;;;;;1.67;1.67;;;;;;;;5030919;28;8880;-70
2023/09/01 05:10:16;;;;;;;;;1.80;1.80;;;;;;;;5029779;28;8879;-71
2023/09/01 05:12:43;;;;;;;;;0.80;0.80;;;;;;;;5029688;28;8878;-71
2023/09/01 05:15:12;;;;;;;;;3.20;1.60;;;;;;;;5029780;28;8840;-71
2023/09/01 05:17:39;;;;;;;;;1.00;1.00;;;;;;;;5030226;28;8873;-76
2023/09/01 05:20:08;;;;;;;;;1.50;1.50;;;;;;;;5029315;28;8900;-72
2023/09/01 05:22:35;;;;;;;;;2.00;2.00;;;;;;;;5030006;28;8976;-73
2023/09/01 05:25:03;;;;;;;;;2.00;2.00;;;;;;;;5029526;28;8864;-71
2023/09/01 05:27:35;;;;;;;;;2.60;2.60;;;;;;;;5029799;28;8966;-72
2023/09/01 05:30:06;;;;;;;;;0.80;0.80;;;;;;;;5029589;28;8852;-72
2023/09/01 05:32:34;;;;;;;;;0.00;0.00;;;;;;;;5028549;28;8850;-71
2023/09/01 05:35:01;;;;;;;;;1.20;1.20;;;;;;;;5029978;28;8894;-71
2023/09/01 05:37:28;;;;;;;;;1.80;1.80;;;;;;;;5030409;28;9697;-72
2023/09/01 05:39:58;;;;;;;;;5.00;2.50;;;;;;;;5029294;28;9642;-71
2023/09/01 05:42:25;;;;;;;;;2.40;1.40;;;;;;;;5029484;28;8990;-72
2023/09/01 05:44:54;;;;;;;;;1.60;1.60;;;;;;;;5029023;28;8867;-73
2023/09/01 05:47:23;;;;;;;;;1.80;1.80;;;;;;;;5028954;28;8856;-73
2023/09/01 05:49:50;;;;;;;;;1.40;1.40;;;;;;;;5029731;28;8986;-72
2023/09/01 05:52:17;;;;;;;;;0.80;0.80;;;;;;;;5028693;28;8927;-74
2023/09/01 05:54:45;;;;;;;;;1.20;1.00;;;;;;;;5028778;28;8844;-71
2023/09/01 05:57:12;;;;;;;;;1.80;1.80;;;;;;;;5029414;28;8852;-72
2023/09/01 05:59:42;;;;;;;;;2.50;2.50;;;;;;;;5028342;28;8901;-74
2023/09/01 06:02:11;;;;;;;;;2.00;0.20;;;;;;;;5028107;28;8835;-73
2023/09/01 06:04:38;;;;;;;;;4.50;3.00;;;;;;;;5029504;28;8875;-75
2023/09/01 06:07:05;;;;;;;;;1.20;1.00;;;;;;;;5028838;28;8901;-76
2023/09/01 06:09:34;;;;;;;;;2.00;2.00;;;;;;;;5029024;28;8856;-75
2023/09/01 06:12:02;;;;;;;;;2.25;2.25;;;;;;;;5028713;28;8852;-78
2023/09/01 06:14:29;;;;;;;;;1.60;1.60;;;;;;;;5028690;28;8863;-76
2023/09/01 06:16:56;;;;;;;;;2.75;2.75;;;;;;;;5029966;28;8898;-73
2023/09/01 06:19:24;;;;;;;;;1.60;0.20;;;;;;;;5028677;28;8848;-72
2023/09/01 06:21:52;;;;;;;;;2.25;1.25;;;;;;;;5029037;28;8861;-73
2023/09/01 06:24:19;;;;;;;;;1.60;1.60;;;;;;;;5030579;28;8841;-72
2023/09/01 06:26:46;;;;;;;;;1.40;1.40;;;;;;;;5031555;28;8840;-72
2023/09/01 06:29:13;;;;;;;;;1.20;0.40;;;;;;;;5032676;28;8868;-72
2023/09/01 06:31:40;;;;;;;;;2.00;2.00;;;;;;;;5027918;28;8815;-76
2023/09/01 06:34:08;;;;;;;;;1.00;1.00;;;;;;;;5024802;28;8917;-72
2023/09/01 06:36:36;;;;;;;;;1.00;1.00;;;;;;;;5028701;28;9265;-74
2023/09/01 06:39:03;;;;;;;;;2.20;2.20;;;;;;;;5028280;28;8876;-73
2023/09/01 06:41:31;;;;;;;;;1.00;1.00;;;;;;;;5015896;28;8853;-73
2023/09/01 06:44:00;;;;;;;;;2.00;2.00;;;;;;;;5028887;28;8846;-72
2023/09/01 06:46:27;;;;;;;;;2.00;2.00;;;;;;;;5027532;28;8857;-77
2023/09/01 06:48:54;;;;;;;;;3.25;1.75;;;;;;;;5028318;28;9026;-72
2023/09/01 06:51:21;;;;;;;;;2.00;2.00;;;;;;;;5014464;28;8844;-73
2023/09/01 06:53:50;;;;;;;;;2.00;2.00;;;;;;;;5028472;28;8890;-72
2023/09/01 06:56:17;;;;;;;;;3.00;1.00;;;;;;;;5027226;28;8840;-71
2023/09/01 06:58:44;;;;;;;;;1.75;1.75;;;;;;;;5028272;28;8872;-71
2023/09/01 07:01:12;;;;;;;;;2.00;2.00;;;;;;;;5027997;28;8834;-72
2023/09/01 07:03:40;;;;;;;;;3.50;2.50;;;;;;;;5027697;28;8870;-71
2023/09/01 07:06:08;;;;;;;;;2.25;1.75;;;;;;;;5028118;28;8842;-71
2023/09/01 07:08:36;;;;;;;;;2.00;2.00;;;;;;;;5027939;28;8996;-72
2023/09/01 07:11:06;;;;;;;;;2.00;2.00;;;;;;;;5027686;28;8913;-71
2023/09/01 07:13:33;;;;;;;;;2.00;2.00;;;;;;;;5028043;28;8975;-72
2023/09/01 07:16:00;;;;;;;;;2.40;2.40;;;;;;;;5027978;28;8877;-71
2023/09/01 07:18:29;;;;;;;;;2.60;2.60;;;;;;;;5027095;28;8868;-72
2023/09/01 07:21:01;;;;;;;;;2.00;2.00;;;;;;;;5027826;28;8999;-72
2023/09/01 07:23:28;;;;;;;;;2.00;2.00;;;;;;;;5027122;28;9753;-72
2023/09/01 07:25:56;;;;;;;;;3.75;2.50;;;;;;;;5027974;28;9646;-72
2023/09/01 07:28:24;;;;;;;;;4.75;3.00;;;;;;;;5027103;28;8860;-72
2023/09/01 07:30:53;;;;;;;;;3.40;2.00;;;;;;;;5027487;28;8796;-72
2023/09/01 07:33:20;;;;;;;;;3.80;2.80;;;;;;;;5026901;28;8870;-78
2023/09/01 07:35:47;;;;;;;;;6.00;2.80;;;;;;;;5027429;28;8863;-71
2023/09/01 07:38:17;;;;;;;;;4.80;2.80;;;;;;;;5027132;28;8848;-72
2023/09/01 07:40:45;;;;;;;;;2.80;2.80;;;;;;;;5028039;28;8860;-72
2023/09/01 07:43:14;;;;;;;;;3.00;3.00;;;;;;;;5027420;28;8856;-71
2023/09/01 07:45:43;;;;;;;;;2.00;2.00;;;;;;;;5028091;28;8856;-73
2023/09/01 07:48:10;;;;;;;;;2.00;2.00;;;;;;;;5026449;28;9020;-73
2023/09/01 07:50:37;;;;;;;;;2.60;2.60;;;;;;;;5027586;28;8870;-72
2023/09/01 07:53:04;;;;;;;;;2.00;2.00;;;;;;;;5027611;28;8892;-72
2023/09/01 07:55:32;;;;;;;;;2.80;2.80;;;;;;;;5026650;28;9663;-73
2023/09/01 07:57:59;;;;;;;;;1.00;1.00;;;;;;;;5027397;28;8888;-73
2023/09/01 08:00:27;;;;;;;;;3.40;2.00;;;;;;;;5026329;28;8763;-73
2023/09/01 08:02:55;;;;;;;;;1.80;1.80;;;;;;;;5027559;28;8859;-73
2023/09/01 08:05:23;;;;;;;;;1.00;1.00;;;;;;;;5029637;28;8896;-72
2023/09/01 08:07:51;;;;;;;;;2.00;2.00;;;;;;;;5030073;28;8864;-73
2023/09/01 08:10:18;;;;;;;;;1.80;1.80;;;;;;;;5029814;28;8851;-72
2023/09/01 08:12:46;;;;;;;;;2.00;2.00;;;;;;;;5030619;28;8915;-72
2023/09/01 08:15:13;;;;;;;;;2.00;2.00;;;;;;;;5030324;28;8828;-72
2023/09/01 08:17:40;;;;;;;;;2.00;2.00;;;;;;;;5027660;28;8876;-72
2023/09/01 08:20:10;;;;;;;;;2.00;2.00;;;;;;;;5026478;28;8889;-72
2023/09/01 08:22:37;;;;;;;;;3.80;2.80;;;;;;;;5027200;28;8883;-72
2023/09/01 08:25:05;;;;;;;;;3.60;3.20;;;;;;;;5026281;28;8860;-79
2023/09/01 08:27:32;;;;;;;;;1.00;1.00;;;;;;;;5026909;28;8862;-75
2023/09/01 08:29:59;;;;;;;;;3.00;3.00;;;;;;;;5026674;28;8876;-76
2023/09/01 08:32:27;;;;;;;;;4.40;3.00;;;;;;;;5026184;28;8839;-72
2023/09/01 08:34:54;;;;;;;;;1.60;1.60;;;;;;;;5027338;28;8895;-74
2023/09/01 08:37:23;;;;;;;;;1.60;1.60;;;;;;;;5015774;28;8863;-73
2023/09/01 08:39:52;;;;;;;;;1.60;1.60;;;;;;;;5025176;28;8844;-73
2023/09/01 08:42:21;;;;;;;;;1.80;1.80;;;;;;;;5027124;28;8881;-73
2023/09/01 08:44:50;;;;;;;;;1.20;1.20;;;;;;;;5026578;28;8858;-72
2023/09/01 08:47:21;;;;;;;;;2.00;2.00;;;;;;;;5028792;28;8961;-72
2023/09/01 08:49:50;;;;;;;;;2.60;1.80;;;;;;;;5030239;28;9695;-73
2023/09/01 08:52:19;;;;;;;;;2.00;2.00;;;;;;;;5029913;28;8890;-72
2023/09/01 08:54:48;;;;;;;;;2.00;2.00;;;;;;;;5031229;28;9639;-76
2023/09/01 08:57:15;;;;;;;;;1.00;1.00;;;;;;;;5029987;28;8871;-76
2023/09/01 08:59:43;;;;;;;;;1.00;1.00;;;;;;;;5030822;28;8859;-73
2023/09/01 09:02:11;;;;;;;;;2.00;2.00;;;;;;;;5029375;28;8824;-81
2023/09/01 09:04:38;;;;;;;;;1.60;1.60;;;;;;;;5030788;28;8949;-72
2023/09/01 09:07:16;;;;;;;;;1.00;1.00;;;;;;;;5030016;28;8848;-72
2023/09/01 09:10:00;;;;;;;;;1.80;1.80;;;;;;;;5030539;28;8856;-73
2023/09/01 09:12:36;;;;;;;;;2.00;2.00;;;;;;;;5028758;28;8978;-73
2023/09/01 09:15:04;;;;;;;;;2.00;2.00;;;;;;;;5029848;28;8871;-72
2023/09/01 09:17:42;;;;;;;;;2.80;2.80;;;;;;;;5029953;28;8925;-72
2023/09/01 09:20:10;;;;;;;;;2.40;2.40;;;;;;;;5029614;28;9708;-76
2023/09/01 09:22:51;;;;;;;;;1.80;1.80;;;;;;;;5030348;28;10111;-72
2023/09/01 09:25:27;;;;;;;;;2.00;2.00;;;;;;;;5029560;28;9669;-76
2023/09/01 09:27:55;;;;;;;;;1.00;1.00;;;;;;;;5030113;28;8868;-72
2023/09/01 09:30:25;;;;;;;;;1.00;1.00;;;;;;;;5029807;28;8943;-72
2023/09/01 09:33:03;;;;;;;;;1.00;1.00;;;;;;;;5029381;28;8852;-78
2023/09/01 09:35:30;;;;;;;;;4.80;1.00;;;;;;;;5029775;28;9655;-73
2023/09/01 09:37:59;;;;;;;;;0.80;0.80;;;;;;;;5029603;28;8860;-73
2023/09/01 09:40:27;;;;;;;;;1.60;1.00;;;;;;;;5029661;28;8880;-73
2023/09/01 09:42:58;;;;;;;;;1.00;1.00;;;;;;;;5030296;28;8884;-74
2023/09/01 09:45:32;;;;;;;;;0.60;0.60;;;;;;;;5031415;28;8866;-71
2023/09/01 09:48:00;;;;;;;;;2.00;2.00;;;;;;;;5031261;28;8844;-74
2023/09/01 09:50:28;;;;;;;;;3.80;2.00;;;;;;;;5031890;28;8865;-73
2023/09/01 09:53:01;;;;;;;;;2.00;2.00;;;;;;;;5031690;28;8844;-73
2023/09/01 09:55:31;;;;;;;;;2.00;2.00;;;;;;;;5031854;28;9399;-73
2023/09/01 09:58:05;;;;;;;;;1.00;1.00;;;;;;;;5030224;28;8917;-74
2023/09/01 10:00:33;;;;;;;;;2.40;1.00;;;;;;;;5028627;28;8773;-72
2023/09/01 10:03:03;;;;;;;;;1.20;1.20;;;;;;;;5029683;28;8871;-73
2023/09/01 10:05:34;;;;;;;;;0.60;0.60;;;;;;;;5029087;28;8880;-78
2023/09/01 10:08:04;;;;;;;;;1.80;1.80;;;;;;;;5029128;28;9144;-73
2023/09/01 10:10:34;;;;;;;;;1.60;1.60;;;;;;;;5028762;28;8879;-73
2023/09/01 10:13:06;;;;;;;;;2.00;2.00;;;;;;;;5029161;28;8880;-73
2023/09/01 10:15:34;;;;;;;;;1.80;1.00;;;;;;;;5028675;28;9630;-72
2023/09/01 10:18:02;;;;;;;;;3.00;1.00;;;;;;;;5028832;28;9757;-74
2023/09/01 10:20:32;;;;;;;;;1.80;1.80;;;;;;;;5028578;28;8874;-73
2023/09/01 10:23:02;;;;;;;;;1.20;1.20;;;;;;;;5031137;28;8852;-72
2023/09/01 10:25:30;;;;;;;;;1.00;1.00;;;;;;;;5028691;28;8869;-81
2023/09/01 10:28:10;;;;;;;;;1.60;1.60;;;;;;;;5030114;28;8840;-75
2023/09/01 10:30:38;;;;;;;;;2.00;2.00;;;;;;;;5030303;28;8769;-71
2023/09/01 10:33:10;;;;;;;;;1.40;1.40;;;;;;;;5031251;28;8853;-73
2023/09/01 10:35:39;;;;;;;;;1.20;0.80;;;;;;;;5028881;28;8984;-73
2023/09/01 10:38:22;;;;;;;;;1.00;1.00;;;;;;;;5029239;28;8862;-77
2023/09/01 10:40:54;;;;;;;;;0.80;0.80;;;;;;;;5028709;28;9026;-72
2023/09/01 10:43:56;;;;;;;;;0.40;0.40;;;;;;;;5028538;28;8871;-71
2023/09/01 10:46:29;;;;;;;;;0.00;0.00;;;;;;;;5027904;28;8876;-72
2023/09/01 10:48:57;;;;;;;;;1.00;1.00;;;;;;;;5027926;28;8871;-71
2023/09/01 10:51:27;;;;;;;;;0.00;0.00;;;;;;;;5027294;28;8868;-72
2023/09/01 10:53:55;;;;;;;;;1.00;1.00;;;;;;;;5029281;28;8876;-72
2023/09/01 10:56:23;;;;;;;;;0.40;0.00;;;;;;;;5016304;28;8995;-72
2023/09/01 10:58:52;;;;;;;;;1.00;1.00;;;;;;;;5027913;28;8846;-71
2023/09/01 11:01:35;;;;;;;;;1.80;0.40;;;;;;;;5016256;28;8816;-72
2023/09/01 11:04:27;;;;;;;;;0.60;0.60;;;;;;;;5027780;28;8893;-74
2023/09/01 11:07:04;;;;;;;;;1.00;1.00;;;;;;;;5027892;28;8860;-75
2023/09/01 11:09:52;;;;;;;;;0.00;0.00;;;;;;;;5017595;28;8872;-70
2023/09/01 11:12:23;;;;;;;;;0.20;0.20;;;;;;;;5027731;28;8921;-70
2023/09/01 11:14:57;;;;;;;;;0.00;0.00;;;;;;;;5028942;28;8868;-74
2023/09/01 11:17:39;;;;;;;;;0.60;0.60;;;;;;;;5029250;28;8845;-83
2023/09/01 11:20:09;;;;;;;;;2.20;1.00;;;;;;;;5028174;28;8872;-71
2023/09/01 11:22:40;;;;;;;;;1.00;1.00;;;;;;;;5028434;28;8840;-76
2023/09/01 11:25:10;;;;;;;;;0.20;0.20;;;;;;;;5030585;28;8852;-71
2023/09/01 11:27:37;;;;;;;;;0.80;0.80;;;;;;;;5031098;28;9705;-72
2023/09/01 11:30:05;;;;;;;;;1.00;1.00;;;;;;;;5030172;28;8882;-70
2023/09/01 11:32:33;;;;;;;;;0.60;0.60;;;;;;;;5030255;28;8888;-70
2023/09/01 11:35:03;;;;;;;;;0.60;0.60;;;;;;;;5032256;28;8868;-71
2023/09/01 11:37:41;;;;;;;;;1.80;0.80;;;;;;;;5027586;28;8848;-72
2023/09/01 11:40:09;;;;;;;;;0.80;0.80;;;;;;;;5026989;28;8868;-71
2023/09/01 11:42:41;;;;;;;;;0.00;0.00;;;;;;;;5027021;28;8875;-69
2023/09/01 11:45:12;;;;;;;;;1.40;0.00;;;;;;;;5027432;28;8865;-71
2023/09/01 11:47:39;;;;;;;;;0.20;0.20;;;;;;;;5026829;28;8874;-70
2023/09/01 11:50:14;;;;;;;;;1.40;0.80;;;;;;;;5027604;28;8979;-70
2023/09/01 11:52:57;;;;;;;;;0.00;0.00;;;;;;;;5026844;28;8864;-71
2023/09/01 11:55:32;;;;;;;;;0.00;0.00;;;;;;;;5027082;28;9678;-70
2023/09/01 11:57:59;;;;;;;;;0.00;0.00;;;;;;;;5026774;28;8848;-71
2023/09/01 12:00:31;;;;;;;;;0.40;0.40;;;;;;;;5026341;28;9529;-71
2023/09/01 12:02:59;;;;;;;;;1.60;1.00;;;;;;;;5016775;28;8986;-70
2023/09/01 12:05:31;;;;;;;;;0.80;0.80;;;;;;;;5027019;28;8872;-72
2023/09/01 12:08:00;;;;;;;;;0.00;0.00;;;;;;;;5027617;28;8848;-71
2023/09/01 12:10:27;;;;;;;;;0.20;0.20;;;;;;;;5026780;28;8848;-74
2023/09/01 12:13:08;;;;;;;;;0.80;0.80;;;;;;;;5027211;28;8868;-71
2023/09/01 12:15:55;;;;;;;;;0.20;0.20;;;;;;;;5026518;28;8879;-72
2023/09/01 12:18:34;;;;;;;;;0.80;0.80;;;;;;;;5026738;28;8860;-70
2023/09/01 12:21:03;;;;;;;;;0.20;0.20;;;;;;;;5027501;28;8848;-72
2023/09/01 12:23:31;;;;;;;;;1.00;1.00;;;;;;;;5030618;28;8880;-71
2023/09/01 12:25:59;;;;;;;;;0.80;0.80;;;;;;;;5031360;28;8862;-71
2023/09/01 12:28:27;;;;;;;;;0.00;0.00;;;;;;;;5030553;28;8858;-70
2023/09/01 12:30:55;;;;;;;;;0.80;0.80;;;;;;;;5030756;28;8831;-70
2023/09/01 12:33:22;;;;;;;;;0.80;0.80;;;;;;;;5030319;28;8852;-71
2023/09/01 12:35:51;;;;;;;;;0.00;0.00;;;;;;;;5031598;28;8862;-70
2023/09/01 12:38:20;;;;;;;;;0.20;0.20;;;;;;;;5017648;28;8914;-70
2023/09/01 12:40:47;;;;;;;;;0.40;0.40;;;;;;;;5030549;28;8856;-71
2023/09/01 12:43:15;;;;;;;;;0.20;0.20;;;;;;;;5030579;28;8988;-74
2023/09/01 12:45:42;;;;;;;;;1.20;0.00;;;;;;;;5030507;28;8913;-70
2023/09/01 12:48:09;;;;;;;;;0.00;0.00;;;;;;;;5030176;28;8872;-70
2023/09/01 12:50:37;;;;;;;;;0.00;0.00;;;;;;;;5030748;28;8844;-71
2023/09/01 12:53:04;;;;;;;;;0.00;0.00;;;;;;;;5030798;28;8863;-71
2023/09/01 12:55:35;;;;;;;;;0.00;0.00;;;;;;;;5029843;28;8856;-72
2023/09/01 12:58:03;;;;;;;;;0.20;0.20;;;;;;;;5030580;28;8986;-71
2023/09/01 13:00:30;;;;;;;;;0.60;0.00;;;;;;;;5029439;28;8769;-70
2023/09/01 13:02:57;;;;;;;;;0.00;0.00;;;;;;;;5031449;28;8860;-72
2023/09/01 13:05:25;;;;;;;;;0.20;0.20;;;;;;;;5032301;28;8916;-70
2023/09/01 13:07:53;;;;;;;;;0.00;0.00;;;;;;;;5033782;28;8886;-73
2023/09/01 13:10:21;;;;;;;;;0.00;0.00;;;;;;;;5033203;28;8954;-70
2023/09/01 13:12:50;;;;;;;;;0.20;0.20;;;;;;;;5033492;28;9003;-71
2023/09/01 13:15:17;;;;;;;;;1.00;0.00;;;;;;;;5033350;28;8974;-70
2023/09/01 13:17:46;;;;;;;;;0.20;0.20;;;;;;;;5030512;28;8849;-71
2023/09/01 13:20:13;;;;;;;;;1.20;0.20;;;;;;;;5029676;28;8870;-71
2023/09/01 13:22:41;;;;;;;;;0.80;0.80;;;;;;;;5030429;28;8891;-71
2023/09/01 13:25:09;;;;;;;;;0.00;0.00;;;;;;;;5029091;28;8853;-70
2023/09/01 13:27:36;;;;;;;;;2.20;0.20;;;;;;;;5029878;28;8848;-74
2023/09/01 13:30:07;;;;;;;;;0.00;0.00;;;;;;;;5024087;28;8860;-71
2023/09/01 13:32:34;;;;;;;;;0.20;0.20;;;;;;;;5029614;28;8852;-70
2023/09/01 13:35:02;;;;;;;;;0.00;0.00;;;;;;;;5028750;28;8860;-71
2023/09/01 13:37:29;;;;;;;;;0.60;0.00;;;;;;;;5018050;28;8856;-70
2023/09/01 13:39:58;;;;;;;;;0.20;0.20;;;;;;;;5029196;28;8848;-71
2023/09/01 13:42:25;;;;;;;;;0.00;0.00;;;;;;;;5028693;28;9584;-72
2023/09/01 13:44:56;;;;;;;;;0.00;0.00;;;;;;;;5029038;28;8892;-70
2023/09/01 13:47:25;;;;;;;;;0.00;0.00;;;;;;;;5029537;28;8864;-70
2023/09/01 13:49:52;;;;;;;;;0.00;0.00;;;;;;;;5029803;28;8852;-69
2023/09/01 13:52:20;;;;;;;;;0.00;0.00;;;;;;;;5029333;28;8846;-70
2023/09/01 13:54:48;;;;;;;;;0.00;0.00;;;;;;;;5029558;28;8908;-70
2023/09/01 13:57:15;;;;;;;;;0.40;0.40;;;;;;;;5028364;28;8856;-70
2023/09/01 13:59:42;;;;;;;;;0.00;0.00;;;;;;;;5028944;28;8860;-70
2023/09/01 14:02:09;;;;;;;;;0.00;0.00;;;;;;;;5028275;28;9743;-75
2023/09/01 14:04:38;;;;;;;;;0.00;0.00;;;;;;;;5029262;28;8922;-70
2023/09/01 14:07:05;;;;;;;;;0.00;0.00;;;;;;;;5028597;28;8860;-70
2023/09/01 14:09:33;;;;;;;;;0.00;0.00;;;;;;;;5028728;28;8852;-71
2023/09/01 14:12:02;;;;;;;;;0.00;0.00;;;;;;;;5028604;28;8947;-71
2023/09/01 14:14:29;;;;;;;;;0.00;0.00;;;;;;;;5028935;28;8895;-71
2023/09/01 14:16:56;;;;;;;;;0.00;0.00;;;;;;;;5028281;28;8840;-69
2023/09/01 14:19:23;;;;;;;;;0.00;0.00;;;;;;;;5028720;28;8852;-70
2023/09/01 14:21:54;;;;;;;;;0.00;0.00;;;;;;;;5028845;28;8845;-70
2023/09/01 14:24:29;;;;;;;;;0.00;0.00;;;;;;;;5029294;28;8860;-73
2023/09/01 14:26:57;;;;;;;;;0.00;0.00;;;;;;;;5028339;28;8982;-69
2023/09/01 14:29:24;;;;;;;;;1.00;0.00;;;;;;;;5028658;28;8864;-68
2023/09/01 14:31:53;;;;;;;;;0.00;0.00;;;;;;;;5028048;28;8808;-68
2023/09/01 14:34:21;;;;;;;;;0.00;0.00;;;;;;;;5028779;28;8860;-68
2023/09/01 14:36:48;;;;;;;;;0.00;0.00;;;;;;;;5027559;28;8995;-67
2023/09/01 14:39:16;;;;;;;;;0.20;0.20;;;;;;;;5028195;28;8844;-68
2023/09/01 14:41:43;;;;;;;;;0.00;0.00;;;;;;;;5029179;28;8914;-68
2023/09/01 14:44:11;;;;;;;;;0.00;0.00;;;;;;;;5029871;28;8994;-68
2023/09/01 14:46:38;;;;;;;;;0.00;0.00;;;;;;;;5019547;28;8868;-68
2023/09/01 14:49:06;;;;;;;;;0.00;0.00;;;;;;;;5031958;28;8872;-71
2023/09/01 14:51:34;;;;;;;;;0.00;0.00;;;;;;;;5031718;28;8860;-71
2023/09/01 14:54:01;;;;;;;;;1.00;0.00;;;;;;;;5033028;28;8856;-69
2023/09/01 14:56:30;;;;;;;;;0.80;0.00;;;;;;;;5028678;28;9516;-69
2023/09/01 14:58:57;;;;;;;;;0.00;0.00;;;;;;;;5027542;28;8837;-69
2023/09/01 15:01:25;;;;;;;;;0.20;0.20;;;;;;;;5027481;28;8804;-69
2023/09/01 15:03:52;;;;;;;;;0.00;0.00;;;;;;;;5028216;28;8844;-69
2023/09/01 15:06:20;;;;;;;;;0.00;0.00;;;;;;;;5027852;28;8870;-72
2023/09/01 15:08:47;;;;;;;;;0.00;0.00;;;;;;;;5027582;28;9012;-70
2023/09/01 15:11:14;;;;;;;;;0.00;0.00;;;;;;;;5027526;28;8860;-70
2023/09/01 15:13:42;;;;;;;;;0.00;0.00;;;;;;;;5027549;28;8875;-69